Fairplay, Colorado
Current Conditions -  °F | °C
As of 2:53 PM on Sunday 25 Jan 2015 (Local Time) from KLXV Reporting Station
Clear Clear  
Wind Chill: 31°   Ceiling: Unl
Heat Index: 38°   Visibility: 10mi
Dew Point: 19°   Wind: 9mph
Humidity: 47%   Direction: 340°NNW
Pressure: 30.32"   Gusts: 18mph
Location:  39.22°N, 106°W
Report Text: KLXV 252153Z AUTO 34008G16KT 10SM CLR 03/M07 A3032 RMK AO2 SLP202 T00331072
Loading
Personal Weather Stations






























Interactive Weather Map New forecast layout! Learn more

10-Day Weather Forecast

Advertisements
Track Severe Weather on mobile